Terminal Aerodrome Forecast
Issued by NWS Cleveland, OH

Home | Current Version | Previous Version | Text Only | Print | Product List | Glossary Off
Versions: 1 2 3 4 5 6 7 8 9 10 11 12 13 14 15 16 17 18 19 20 21

000
FTUS41 KCLE 212202 AAA
TAFMFD
TAF AMD
KMFD 212202Z 2122/2218 21007KT P6SM BKN070
     FM220000 21005KT P6SM OVC050
     FM220400 20005KT P6SM OVC025
     FM220700 19003KT 3SM BR OVC008
     FM221400 22008KT 5SM BR OVC015=

USA.gov is the U.S. government's official web portal to all federal, state and local government web resources and services.